Time;durP1;ratioP1;P1;durP2;ratioP2;P2;SDS_P1;SDS_P2;PMS_P1;PMS_P2;Temp;Humidity;BMP_temperature;BMP_pressure;BME280_temperature;BME280_humidity;BME280_pressure;Samples;Min_cycle;Max_cycle;Signal;HPM_P1;HPM_P2
2021/10/21 00:01:09;;;;;;;1.40;1.23;;;;;;;16.33;86.47;97653.81;5149737;27;42341;-77
2021/10/21 00:03:37;;;;;;;2.57;1.40;;;;;;;16.29;86.12;97646.28;5150676;27;40133;-76
2021/10/21 00:06:05;;;;;;;2.27;1.37;;;;;;;16.27;86.14;97635.75;5149779;27;41864;-77
2021/10/21 00:08:33;;;;;;;1.77;1.67;;;;;;;16.15;85.89;97613.00;5150565;27;43767;-77
2021/10/21 00:11:00;;;;;;;2.70;1.53;;;;;;;16.26;85.91;97622.56;5151123;27;42971;-78
2021/10/21 00:13:27;;;;;;;1.43;1.33;;;;;;;16.23;85.88;97609.53;5133265;27;39186;-77
2021/10/21 00:15:56;;;;;;;1.63;1.53;;;;;;;16.14;85.97;97581.97;5151557;27;42391;-77
2021/10/21 00:18:24;;;;;;;1.17;1.07;;;;;;;16.15;85.97;97584.47;5132582;27;41761;-77
2021/10/21 00:20:51;;;;;;;1.20;1.10;;;;;;;16.12;85.72;97573.28;5166662;27;42527;-77
2021/10/21 00:23:19;;;;;;;1.50;1.40;;;;;;;15.98;85.64;97561.38;5150342;27;39932;-77
2021/10/21 00:25:46;;;;;;;0.87;0.87;;;;;;;15.93;85.90;97553.03;5158757;27;40613;-76
2021/10/21 00:28:14;;;;;;;1.30;1.20;;;;;;;16.02;85.71;97546.72;5129185;27;43605;-76
2021/10/21 00:30:42;;;;;;;1.60;1.50;;;;;;;15.92;85.67;97529.16;5129518;27;42233;-77
2021/10/21 00:33:11;;;;;;;2.13;1.50;;;;;;;15.92;85.84;97519.31;5128036;27;40010;-76
2021/10/21 00:35:39;;;;;;;1.33;1.23;;;;;;;15.90;85.98;97510.63;5129821;27;40645;-77
2021/10/21 00:38:06;;;;;;;1.87;1.30;;;;;;;15.83;85.81;97498.91;5148496;27;43543;-77
2021/10/21 00:40:34;;;;;;;2.00;1.50;;;;;;;15.85;85.82;97506.75;5150283;27;41468;-76
2021/10/21 00:43:01;;;;;;;1.83;1.50;;;;;;;15.78;85.91;97495.91;5148000;27;40906;-79
2021/10/21 00:45:30;;;;;;;1.30;1.20;;;;;;;15.75;86.45;97474.84;5119386;27;41772;-77
2021/10/21 00:47:57;;;;;;;1.50;1.37;;;;;;;15.70;86.11;97470.00;5128414;27;41677;-78
2021/10/21 00:50:27;;;;;;;1.40;1.23;;;;;;;15.80;86.52;97489.41;5128472;27;42706;-76
2021/10/21 00:52:56;;;;;;;1.60;1.50;;;;;;;15.80;86.48;97457.38;5110858;27;38937;-77
2021/10/21 00:55:24;;;;;;;2.67;1.70;;;;;;;15.81;86.50;97426.19;5121514;27;41637;-77
2021/10/21 00:57:51;;;;;;;2.13;1.70;;;;;;;15.79;86.66;97409.50;5128258;27;43582;-78
2021/10/21 01:00:19;;;;;;;2.00;1.70;;;;;;;15.78;87.08;97389.13;5162880;27;42074;-78
2021/10/21 01:02:46;;;;;;;2.73;1.90;;;;;;;15.76;87.04;97402.63;5132226;27;39250;-77
2021/10/21 01:05:14;;;;;;;1.67;1.20;;;;;;;15.71;86.75;97372.09;5126269;27;40546;-78
2021/10/21 01:07:44;;;;;;;1.50;1.40;;;;;;;15.73;87.15;97375.44;5152452;27;43739;-78
2021/10/21 01:10:11;;;;;;;2.03;1.80;;;;;;;15.63;87.07;97348.06;5150671;27;42371;-79
2021/10/21 01:12:39;;;;;;;1.60;1.50;;;;;;;15.69;87.28;97336.75;5151361;27;38623;-78
2021/10/21 01:15:18;;;;;;;2.13;1.80;;;;;;;15.63;87.53;97324.03;5151442;27;40791;-79
2021/10/21 01:17:46;;;;;;;1.70;1.60;;;;;;;15.61;87.37;97321.53;5153562;27;42697;-77
2021/10/21 08:47:06;;;;;;;0.50;0.40;;;;;;;11.52;83.23;97754.47;5168509;27;1871145;-80
2021/10/21 08:49:37;;;;;;;0.33;0.33;;;;;;;12.14;80.38;97777.50;5192551;27;39920;-84
2021/10/21 08:52:05;;;;;;;1.70;0.60;;;;;;;12.90;76.86;97792.06;5211628;27;41626;-79
2021/10/21 08:54:32;;;;;;;0.93;0.30;;;;;;;13.57;74.46;97812.63;5175378;27;42449;-78
2021/10/21 08:57:00;;;;;;;0.40;0.40;;;;;;;14.06;70.44;97821.41;5192179;27;41228;-88
2021/10/21 08:59:28;;;;;;;0.40;0.40;;;;;;;14.09;69.48;97845.09;5175420;27;40234;-81
2021/10/21 09:02:06;;;;;;;0.30;0.30;;;;;;;14.21;68.27;97849.28;5211825;27;41525;-79
2021/10/21 09:04:52;;;;;;;0.40;0.40;;;;;;;14.21;68.02;97865.25;5177308;27;42966;-79
2021/10/21 09:10:09;;;;;;;0.30;0.30;;;;;;;14.36;66.81;97890.41;5170337;27;39025;-80
2021/10/21 09:12:42;;;;;;;0.30;0.30;;;;;;;14.56;65.71;97913.44;5172449;27;44009;-80
2021/10/21 09:15:13;;;;;;;0.37;0.37;;;;;;;14.50;66.03;97914.00;5172545;27;43180;-80
2021/10/21 09:17:41;;;;;;;0.30;0.30;;;;;;;14.56;65.58;97902.78;5211179;27;42295;-81
2021/10/21 09:20:37;;;;;;;0.47;0.47;;;;;;;14.83;64.62;97912.66;5174630;27;38895;-79
2021/10/21 09:23:07;;;;;;;0.30;0.30;;;;;;;15.55;63.70;97925.25;5190358;27;40835;-79
2021/10/21 09:25:41;;;;;;;0.20;0.20;;;;;;;15.74;62.50;97964.31;5164843;27;42029;-78
2021/10/21 09:28:32;;;;;;;0.33;0.33;;;;;;;16.13;60.82;97981.78;5195595;27;41773;-80
2021/10/21 09:31:03;;;;;;;0.40;0.40;;;;;;;16.45;59.97;97986.56;5179865;27;39602;-80
2021/10/21 09:33:45;;;;;;;0.43;0.30;;;;;;;16.69;58.82;97983.28;5186175;27;40674;-82
2021/10/21 09:36:20;;;;;;;0.63;0.50;;;;;;;17.47;56.94;98028.75;5200498;27;41985;-81
2021/10/21 09:38:52;;;;;;;0.23;0.23;;;;;;;17.95;55.13;98041.56;5189786;27;42389;-80
2021/10/21 09:41:21;;;;;;;0.50;0.30;;;;;;;17.72;54.98;98013.69;5171179;27;38863;-81
2021/10/21 09:43:51;;;;;;;0.30;0.30;;;;;;;17.85;53.95;98056.94;5175233;27;41080;-79
2021/10/21 09:46:42;;;;;;;0.27;0.27;;;;;;;18.32;53.53;98054.56;5209708;27;42608;-81
2021/10/21 09:49:16;;;;;;;0.13;0.13;;;;;;;18.86;50.71;98053.16;5192774;27;42151;-84
2021/10/21 09:51:46;;;;;;;0.20;0.20;;;;;;;19.23;49.33;98092.91;5174986;27;39043;-80
2021/10/21 09:54:25;;;;;;;;;;;;;;;;;;;;;
2021/10/21 09:57:31;;;;;;;0.80;0.27;;;;;;;20.40;45.82;98068.91;5164771;27;41114;-83
2021/10/21 10:00:15;;;;;;;0.33;0.30;;;;;;;20.95;44.70;98070.53;5173358;27;40962;-81
2021/10/21 10:02:52;;;;;;;0.20;0.20;;;;;;;20.69;44.27;98166.94;5161108;27;39092;-81
2021/10/21 10:05:20;;;;;;;0.30;0.30;;;;;;;19.92;46.45;98163.16;5147832;27;41869;-81
2021/10/21 10:07:49;;;;;;;0.40;0.40;;;;;;;19.07;47.36;98161.84;5160774;27;42676;-81
2021/10/21 10:10:16;;;;;;;0.30;0.30;;;;;;;18.42;48.06;98156.31;5176405;27;42449;-81
2021/10/21 10:12:44;;;;;;;0.50;0.30;;;;;;;17.79;49.94;98135.25;5176873;27;39940;-80
2021/10/21 10:15:11;;;;;;;0.30;0.30;;;;;;;17.19;51.79;98135.97;5159688;27;40891;-79
2021/10/21 10:17:39;;;;;;;0.40;0.40;;;;;;;16.74;51.64;98114.69;5160389;27;41819;-79
2021/10/21 10:20:08;;;;;;;0.40;0.40;;;;;;;16.47;52.26;98134.25;5158911;27;41974;-82
2021/10/21 10:22:40;;;;;;;3.80;0.50;;;;;;;16.33;52.66;98139.25;5195626;27;40854;-77
2021/10/21 10:25:18;;;;;;;1.53;0.30;;;;;;;16.35;52.35;98150.63;5176418;27;41857;-80
2021/10/21 10:27:57;;;;;;;0.40;0.40;;;;;;;16.77;51.39;98146.47;5159543;27;41938;-85
2021/10/21 10:30:45;;;;;;;0.80;0.50;;;;;;;17.19;50.58;98164.56;5155870;27;42452;-81
2021/10/21 10:33:14;;;;;;;0.50;0.50;;;;;;;17.90;48.39;98172.47;5174892;27;40606;-82
2021/10/21 10:35:44;;;;;;;0.83;0.40;;;;;;;18.37;47.01;98170.19;5173920;27;41778;-84
2021/10/21 10:38:11;;;;;;;0.40;0.40;;;;;;;18.58;46.03;98188.56;5155450;27;41976;-81
2021/10/21 10:40:44;;;;;;;0.40;0.40;;;;;;;18.97;43.71;98203.09;5139098;27;40999;-79
2021/10/21 10:43:13;;;;;;;0.50;0.40;;;;;;;19.86;42.94;98222.97;5154613;27;39073;-81
2021/10/21 10:45:44;;;;;;;1.63;0.47;;;;;;;20.27;41.44;98242.56;5139197;27;41010;-80
2021/10/21 10:48:12;;;;;;;0.33;0.30;;;;;;;21.68;39.58;98244.22;5177161;27;43763;-81
2021/10/21 10:50:55;;;;;;;0.63;0.47;;;;;;;21.68;38.53;98266.63;5195303;27;42133;-80
2021/10/21 10:53:49;;;;;;;0.30;0.30;;;;;;;23.33;36.74;98274.47;5159366;27;39044;-78
2021/10/21 10:56:52;;;;;;;0.33;0.33;;;;;;;24.27;35.89;98269.78;5172878;27;40841;-78
2021/10/21 10:59:35;;;;;;;0.40;0.40;;;;;;;24.24;34.45;98300.75;5168136;27;42736;-79
2021/10/21 11:02:31;;;;;;;0.40;0.30;;;;;;;25.33;33.19;98314.56;5175971;27;41465;-78
2021/10/21 11:05:04;;;;;;;0.43;0.43;;;;;;;24.76;33.63;98304.03;5195413;27;40878;-79
2021/10/21 11:07:53;;;;;;;0.37;0.37;;;;;;;24.46;33.89;98309.69;5159006;27;41942;-78
2021/10/21 11:10:39;;;;;;;0.30;0.30;;;;;;;24.24;34.45;98305.34;5193250;27;42841;-79
2021/10/21 11:13:42;;;;;;;0.50;0.50;;;;;;;24.33;33.46;98321.25;5173973;27;41361;-79
2021/10/21 11:16:41;;;;;;;0.97;0.30;;;;;;;24.52;33.80;98319.72;5175881;27;40125;-78
2021/10/21 11:19:11;;;;;;;0.40;0.40;;;;;;;25.32;32.78;98337.28;5163161;27;42100;-79
2021/10/21 11:21:50;;;;;;;1.40;0.40;;;;;;;26.35;29.81;98338.81;5154305;27;43145;-80
2021/10/21 11:25:02;;;;;;;0.40;0.40;;;;;;;27.25;30.34;98339.94;5172988;27;42755;-79
2021/10/21 11:27:35;;;;;;;0.90;0.80;;;;;;;27.81;29.06;98323.78;5137322;27;39985;-81
2021/10/21 11:30:15;;;;;;;0.60;0.60;;;;;;;28.08;28.15;98325.25;5153561;27;40944;-80
2021/10/21 11:32:46;;;;;;;0.40;0.40;;;;;;;28.39;27.88;98343.50;5173709;27;43358;-80
2021/10/21 11:35:17;;;;;;;0.80;0.60;;;;;;;29.00;27.17;98334.56;5154871;27;42605;-82
2021/10/21 11:37:48;;;;;;;1.03;0.57;;;;;;;29.90;26.09;98341.00;5154960;27;40306;-83
2021/10/21 11:40:30;;;;;;;0.60;0.60;;;;;;;30.52;25.35;98354.38;5175515;27;41301;-82
2021/10/21 11:43:00;;;;;;;0.50;0.50;;;;;;;29.85;24.61;98356.41;5174805;27;42909;-83
2021/10/21 11:45:30;;;;;;;1.70;0.60;;;;;;;29.50;25.69;98368.00;5154906;27;42434;-83
2021/10/21 11:48:01;;;;;;;0.50;0.50;;;;;;;29.56;26.00;98356.16;5175609;27;41361;-80
2021/10/21 11:50:33;;;;;;;0.83;0.60;;;;;;;30.23;25.22;98367.00;5176572;27;41632;-87
2021/10/21 11:53:02;;;;;;;1.17;1.00;;;;;;;30.84;23.63;98374.00;5174689;27;43513;-80
2021/10/21 11:55:30;;;;;;;0.50;0.50;;;;;;;31.45;23.13;98369.94;5158863;27;40970;-83
2021/10/21 11:58:01;;;;;;;4.33;0.90;;;;;;;32.46;22.23;98372.75;5174025;27;40050;-81
2021/10/21 12:00:31;;;;;;;0.70;0.50;;;;;;;33.80;21.70;98378.03;5154994;27;41999;-84
2021/10/21 12:03:02;;;;;;;1.67;0.87;;;;;;;34.88;19.60;98380.75;5161987;27;42690;-80
2021/10/21 12:05:31;;;;;;;0.60;0.40;;;;;;;35.53;19.43;98374.00;5175566;27;42531;-86
2021/10/21 12:08:01;;;;;;;0.60;0.60;;;;;;;36.22;19.01;98373.75;5171235;27;40986;-83
2021/10/21 12:10:31;;;;;;;0.88;0.80;;;;;;;36.65;18.22;98375.97;5154500;27;41073;-81
2021/10/21 12:13:20;;;;;;;1.10;0.75;;;;;;;37.03;18.65;98359.94;5154389;27;42783;-90
2021/10/21 12:15:52;;;;;;;1.30;0.70;;;;;;;37.62;17.23;98376.66;5136739;27;42151;-80
2021/10/21 12:18:21;;;;;;;0.47;0.47;;;;;;;37.13;17.41;98376.47;5158160;27;39233;-83
2021/10/21 12:20:52;;;;;;;0.40;0.40;;;;;;;36.61;16.92;98374.84;5194231;27;41699;-83
2021/10/21 12:23:25;;;;;;;0.50;0.50;;;;;;;36.46;17.81;98355.56;5150595;27;42960;-79
2021/10/21 12:25:54;;;;;;;0.40;0.40;;;;;;;36.51;17.56;98363.81;5137564;27;42562;-81
2021/10/21 12:28:22;;;;;;;0.45;0.45;;;;;;;36.57;17.92;98365.47;5158864;27;39979;-80
2021/10/21 12:30:50;;;;;;;0.93;0.40;;;;;;;36.65;17.32;98364.09;5157069;27;41038;-79
2021/10/21 12:33:19;;;;;;;0.57;0.50;;;;;;;35.71;18.79;98339.66;5169571;27;43636;-81
2021/10/21 12:36:03;;;;;;;0.40;0.40;;;;;;;35.93;19.05;98349.38;5172525;27;41239;-80
2021/10/21 12:38:33;;;;;;;0.90;0.53;;;;;;;36.27;17.36;98340.63;5167766;27;40130;-82
2021/10/21 12:41:03;;;;;;;1.37;0.57;;;;;;;36.09;17.88;98321.84;5169513;27;42481;-82
2021/10/21 12:43:32;;;;;;;0.50;0.50;;;;;;;34.32;18.96;98325.28;5193054;27;43468;-82
2021/10/21 12:46:03;;;;;;;0.50;0.50;;;;;;;34.48;19.24;98318.00;5193276;27;42883;-79
2021/10/21 12:48:32;;;;;;;0.50;0.50;;;;;;;34.33;19.24;98332.44;5156429;27;39197;-79
2021/10/21 12:51:14;;;;;;;1.73;0.83;;;;;;;33.40;19.56;98323.44;5170939;27;42707;-81
2021/10/21 12:53:53;;;;;;;0.83;0.70;;;;;;;32.25;20.54;98320.59;5171353;27;42622;-79
2021/10/21 12:56:23;;;;;;;1.40;0.73;;;;;;;31.86;20.48;98303.16;5153519;27;40801;-87
2021/10/21 12:59:02;;;;;;;0.70;0.53;;;;;;;29.97;22.59;98302.69;5152846;27;39060;-80
2021/10/21 13:01:54;;;;;;;0.73;0.50;;;;;;;30.01;22.61;98301.19;5171106;27;42458;-79
2021/10/21 13:04:41;;;;;;;0.50;0.50;;;;;;;29.37;23.41;98286.28;5171701;27;43533;-80
2021/10/21 13:07:12;;;;;;;1.30;0.53;;;;;;;28.05;24.94;98271.28;5170652;27;42549;-80
2021/10/21 13:09:41;;;;;;;1.13;0.40;;;;;;;26.87;26.34;98280.00;5174544;27;40967;-79
2021/10/21 13:12:09;;;;;;;2.00;0.60;;;;;;;26.16;27.11;98259.03;5173845;27;42514;-83
2021/10/21 13:14:38;;;;;;;0.63;0.50;;;;;;;25.04;28.23;98248.78;5157308;27;43006;-81
2021/10/21 13:17:07;;;;;;;0.67;0.57;;;;;;;24.59;29.43;98235.84;5173633;27;42774;-81
2021/10/21 13:19:36;;;;;;;1.00;0.40;;;;;;;25.02;29.16;98233.78;5176626;27;39658;-77
2021/10/21 13:22:05;;;;;;;0.90;0.50;;;;;;;25.93;28.38;98243.16;5141294;27;40577;-80
2021/10/21 13:24:35;;;;;;;0.50;0.40;;;;;;;26.70;27.65;98250.63;5153074;27;43516;-82
2021/10/21 13:27:04;;;;;;;1.00;0.43;;;;;;;27.52;26.07;98266.16;5153378;27;41268;-82
2021/10/21 13:29:32;;;;;;;0.87;0.50;;;;;;;28.20;25.56;98262.78;5168339;27;39982;-84
2021/10/21 13:32:00;;;;;;;0.73;0.40;;;;;;;28.69;24.86;98267.34;5153422;27;40818;-81
2021/10/21 13:34:28;;;;;;;0.70;0.50;;;;;;;28.86;24.04;98283.97;5156956;27;43007;-81
2021/10/21 13:36:55;;;;;;;0.50;0.50;;;;;;;28.95;23.93;98282.59;5173429;27;42182;-79
2021/10/21 13:39:23;;;;;;;0.90;0.60;;;;;;;29.02;24.04;98282.53;5175065;27;39925;-81
2021/10/21 13:41:52;;;;;;;2.00;0.80;;;;;;;28.72;23.98;98287.84;5190254;27;41918;-77
2021/10/21 13:44:20;;;;;;;1.27;0.60;;;;;;;28.73;24.20;98284.91;5159479;27;42302;-79
2021/10/21 13:46:48;;;;;;;1.10;0.60;;;;;;;28.82;24.44;98288.19;5156311;27;41477;-77
2021/10/21 13:49:16;;;;;;;0.70;0.57;;;;;;;28.65;24.48;98282.50;5173800;27;40262;-78
2021/10/21 13:51:44;;;;;;;0.90;0.60;;;;;;;28.83;24.53;98285.25;5155492;27;41168;-77
2021/10/21 13:54:11;;;;;;;0.50;0.50;;;;;;;29.09;24.33;98294.19;5154932;27;41776;-78
2021/10/21 13:56:39;;;;;;;0.77;0.50;;;;;;;29.24;24.22;98278.28;5156581;27;42533;-78
2021/10/21 13:59:10;;;;;;;1.37;0.60;;;;;;;28.70;24.21;98258.09;5151159;27;40257;-79
2021/10/21 14:01:38;;;;;;;0.53;0.53;;;;;;;28.54;24.29;98266.88;5196293;27;41301;-80
2021/10/21 14:04:06;;;;;;;0.57;0.50;;;;;;;28.43;24.73;98262.19;5195569;27;43812;-82
2021/10/21 14:06:34;;;;;;;1.67;0.60;;;;;;;28.41;24.44;98277.91;5177648;27;41862;-83
2021/10/21 14:09:02;;;;;;;1.07;0.53;;;;;;;27.28;25.44;98272.38;5150002;27;39915;-80
2021/10/21 14:11:33;;;;;;;1.17;0.80;;;;;;;25.90;26.18;98253.59;5170627;27;41732;-79
2021/10/21 14:14:03;;;;;;;0.50;0.40;;;;;;;24.61;28.36;98272.50;5157764;27;41697;-81
2021/10/21 14:16:34;;;;;;;2.37;0.80;;;;;;;23.55;29.96;98245.63;5176444;27;43753;-79
2021/10/21 14:19:03;;;;;;;1.17;0.50;;;;;;;22.62;31.18;98226.63;5157372;27;40082;-78
2021/10/21 14:21:31;;;;;;;0.93;0.80;;;;;;;22.02;31.93;98231.13;5176251;27;42113;-78
2021/10/21 14:23:58;;;;;;;1.17;0.60;;;;;;;21.46;32.96;98221.66;5173656;27;44316;-78
2021/10/21 14:26:26;;;;;;;0.47;0.47;;;;;;;20.93;33.72;98206.31;5143823;27;42324;-75
2021/10/21 14:28:54;;;;;;;0.63;0.57;;;;;;;20.57;34.88;98189.84;5173602;27;39373;-77
2021/10/21 14:31:22;;;;;;;1.50;0.70;;;;;;;20.31;34.55;98193.63;5170422;27;40851;-78
2021/10/21 14:33:51;;;;;;;0.60;0.40;;;;;;;19.99;35.59;98193.72;5147404;27;42079;-78
2021/10/21 14:36:19;;;;;;;2.40;0.60;;;;;;;19.67;35.67;98186.53;5179191;27;43252;-77
2021/10/21 14:38:47;;;;;;;0.50;0.50;;;;;;;19.30;36.32;98189.72;5183336;27;39885;-77
2021/10/21 14:41:14;;;;;;;0.57;0.50;;;;;;;18.98;36.51;98180.63;5137778;27;42380;-78
2021/10/21 14:43:42;;;;;;;0.70;0.47;;;;;;;18.75;37.43;98176.91;5140402;27;42967;-80
2021/10/21 14:46:09;;;;;;;0.70;0.67;;;;;;;18.55;37.69;98176.28;5153897;27;42151;-82
2021/10/21 14:48:37;;;;;;;0.90;0.63;;;;;;;18.34;37.22;98191.97;5145535;27;39277;-81
2021/10/21 14:51:06;;;;;;;1.53;0.60;;;;;;;18.05;38.14;98181.59;5164038;27;41921;-78
2021/10/21 14:53:34;;;;;;;1.70;0.70;;;;;;;17.90;38.60;98172.47;5190156;27;42656;-78
2021/10/21 14:56:02;;;;;;;0.53;0.50;;;;;;;17.68;39.03;98157.75;5154651;27;41140;-82
2021/10/21 14:58:31;;;;;;;4.17;1.27;;;;;;;17.62;39.59;98157.53;5169591;27;39296;-81
2021/10/21 15:00:58;;;;;;;1.80;0.60;;;;;;;17.36;39.49;98153.00;5158466;27;40828;-77
2021/10/21 15:03:26;;;;;;;1.93;0.67;;;;;;;17.27;39.75;98169.16;5174355;27;43978;-79
2021/10/21 15:06:07;;;;;;;3.70;0.70;;;;;;;17.03;40.01;98146.53;5139103;27;41288;-79
2021/10/21 15:11:46;;;;;;;0.67;0.57;;;;;;;16.64;40.74;98135.31;5173158;27;42841;-80
2021/10/21 15:14:42;;;;;;;1.50;0.70;;;;;;;16.45;41.73;98125.53;5168854;27;42879;-79
2021/10/21 15:22:44;;;;;;;0.40;0.40;;;;;;;16.08;42.42;98122.09;5162974;27;41759;-80
2021/10/21 15:25:14;;;;;;;0.70;0.60;;;;;;;15.99;42.56;98126.50;5150270;27;42242;-79
2021/10/21 15:27:43;;;;;;;0.30;0.30;;;;;;;15.88;42.72;98121.34;5173596;27;42084;-79
2021/10/21 15:30:11;;;;;;;2.37;0.50;;;;;;;15.84;43.24;98114.59;5175196;27;39891;-80
2021/10/21 15:32:39;;;;;;;1.90;0.90;;;;;;;15.75;43.50;98120.84;5148695;27;41088;-78
2021/10/21 15:35:10;;;;;;;1.57;0.80;;;;;;;15.56;44.28;98110.25;5163275;27;44152;-79
2021/10/21 15:37:39;;;;;;;1.27;0.60;;;;;;;15.50;44.30;98105.44;5171298;27;42241;-78
2021/10/21 15:40:09;;;;;;;2.17;0.70;;;;;;;15.39;44.25;98104.63;5169908;27;41327;-82
2021/10/21 15:42:38;;;;;;;0.30;0.30;;;;;;;15.33;44.17;98112.38;5145130;27;42191;-81
2021/10/21 15:45:22;;;;;;;1.80;0.47;;;;;;;15.25;44.66;98112.22;5144899;27;43166;-79
2021/10/21 15:47:52;;;;;;;1.57;0.30;;;;;;;15.08;45.05;98087.97;5153837;27;41992;-84
2021/10/21 16:10:06;;;;;;;0.63;0.60;;;;;;;14.34;47.68;98070.88;5153940;27;42415;-82
2021/10/21 16:12:33;;;;;;;2.00;0.50;;;;;;;14.25;47.31;98074.34;5161582;27;39471;-79
2021/10/21 16:15:06;;;;;;;0.47;0.47;;;;;;;13.94;48.08;98034.50;5159740;27;40731;-77
2021/10/21 16:17:37;;;;;;;0.50;0.50;;;;;;;14.11;48.05;98082.72;5134900;27;42825;-77
2021/10/21 16:20:09;;;;;;;2.97;0.60;;;;;;;14.08;48.33;98083.00;5156067;27;42845;-78
2021/10/21 16:22:46;;;;;;;0.50;0.50;;;;;;;14.00;48.99;98081.00;5165302;27;39208;-77
2021/10/21 16:28:15;;;;;;;1.57;0.60;;;;;;;13.87;49.43;98086.56;5171896;27;42740;-77
2021/10/21 16:30:45;;;;;;;1.33;0.40;;;;;;;13.79;49.16;98089.09;5174468;27;42312;-78
2021/10/21 16:33:12;;;;;;;3.60;0.60;;;;;;;13.70;49.67;98089.91;5169349;27;40328;-77
2021/10/21 16:35:43;;;;;;;1.43;0.60;;;;;;;13.70;50.10;98094.38;5157637;27;41833;-78
2021/10/21 16:38:11;;;;;;;0.97;0.40;;;;;;;13.64;49.90;98117.88;5156326;27;42873;-77
2021/10/21 16:40:39;;;;;;;0.60;0.60;;;;;;;13.63;49.49;98126.81;5157310;27;42463;-77
2021/10/21 16:43:07;;;;;;;0.50;0.47;;;;;;;13.58;50.05;98106.94;5156255;27;40485;-78
2021/10/21 16:45:35;;;;;;;1.17;0.50;;;;;;;13.42;49.82;98102.06;5174014;27;42560;-77
2021/10/21 16:48:04;;;;;;;2.00;0.50;;;;;;;13.50;50.57;98114.69;5157627;27;41652;-77
2021/10/21 16:50:32;;;;;;;0.50;0.50;;;;;;;13.54;50.53;98116.13;5174424;27;41537;-77
2021/10/21 16:52:59;;;;;;;0.40;0.40;;;;;;;13.57;50.20;98118.53;5174078;27;38837;-77
2021/10/21 16:55:27;;;;;;;0.50;0.50;;;;;;;13.60;49.92;98120.91;5174351;27;42179;-77
2021/10/21 16:57:55;;;;;;;0.70;0.60;;;;;;;13.59;50.12;98132.56;5156462;27;41871;-77
2021/10/21 17:00:23;;;;;;;0.77;0.40;;;;;;;13.58;50.18;98133.53;5192520;27;42111;-77
2021/10/21 17:02:51;;;;;;;1.13;0.53;;;;;;;13.53;50.69;98135.72;5173739;27;38902;-76
2021/10/21 17:05:20;;;;;;;1.37;0.80;;;;;;;13.38;50.28;98126.41;5173872;27;41613;-77
2021/10/21 17:07:48;;;;;;;1.60;1.10;;;;;;;13.40;50.27;98132.44;5158654;27;41793;-77
2021/10/21 17:10:17;;;;;;;1.53;0.70;;;;;;;13.37;50.73;98145.97;5160218;27;41197;-79
2021/10/21 17:12:45;;;;;;;0.47;0.47;;;;;;;13.36;50.76;98152.28;5177001;27;39999;-78
2021/10/21 17:15:13;;;;;;;1.20;0.50;;;;;;;13.23;50.98;98118.75;5160069;27;41128;-78
2021/10/21 17:17:44;;;;;;;3.40;1.13;;;;;;;13.34;51.13;98159.56;5176948;27;43403;-78
2021/10/21 17:20:12;;;;;;;0.70;0.60;;;;;;;13.22;50.56;98129.53;5161226;27;42295;-78
2021/10/21 17:22:41;;;;;;;2.17;0.60;;;;;;;13.45;51.15;98156.84;5159506;27;38814;-78
2021/10/21 17:25:09;;;;;;;1.40;0.50;;;;;;;13.56;50.47;98146.13;5177156;27;41606;-78
2021/10/21 17:27:37;;;;;;;1.00;0.57;;;;;;;13.60;50.64;98152.84;5160577;27;42105;-77
2021/10/21 17:30:06;;;;;;;0.90;0.40;;;;;;;13.60;50.08;98155.50;5159364;27;41235;-78
2021/10/21 17:32:33;;;;;;;0.87;0.50;;;;;;;13.61;50.44;98166.00;5159410;27;40013;-77
2021/10/21 17:35:01;;;;;;;0.70;0.50;;;;;;;13.58;49.97;98157.47;5177307;27;40825;-77
2021/10/21 17:37:29;;;;;;;0.67;0.60;;;;;;;13.66;50.09;98178.94;5159945;27;41719;-78
2021/10/21 17:40:00;;;;;;;1.00;0.80;;;;;;;13.65;50.29;98183.41;5177134;27;41276;-79
2021/10/21 17:42:28;;;;;;;0.73;0.40;;;;;;;13.73;51.15;98185.41;5177426;27;38787;-78
2021/10/21 17:44:55;;;;;;;0.80;0.50;;;;;;;13.74;50.27;98200.38;5159530;27;40669;-77
2021/10/21 17:47:23;;;;;;;2.20;0.60;;;;;;;13.76;51.26;98214.41;5195224;27;42805;-78
2021/10/21 17:49:51;;;;;;;0.47;0.47;;;;;;;13.64;52.66;98212.81;5176606;27;42905;-77
2021/10/21 17:52:19;;;;;;;0.50;0.50;;;;;;;13.52;53.83;98219.16;5176423;27;40926;-77
2021/10/21 17:54:46;;;;;;;1.93;0.80;;;;;;;13.27;57.18;98217.72;5160514;27;41866;-77
2021/10/21 17:57:16;;;;;;;0.70;0.70;;;;;;;13.10;58.84;98224.44;5158738;27;42981;-77
2021/10/21 17:59:43;;;;;;;0.80;0.50;;;;;;;12.87;61.50;98250.22;5159735;27;40924;-77
2021/10/21 18:02:12;;;;;;;0.83;0.40;;;;;;;12.71;63.48;98286.13;5177297;27;39823;-78
2021/10/21 18:04:40;;;;;;;0.60;0.30;;;;;;;12.55;66.21;98308.59;5176370;27;42524;-79
2021/10/21 18:07:13;;;;;;;0.50;0.43;;;;;;;12.37;67.51;98325.97;5195319;27;42702;-78
2021/10/21 18:09:41;;;;;;;2.37;0.50;;;;;;;12.08;68.66;98330.06;5195751;27;42867;-78
2021/10/21 18:12:09;;;;;;;0.33;0.33;;;;;;;11.97;69.14;98361.88;5158783;27;39594;-78
2021/10/21 18:14:39;;;;;;;0.33;0.33;;;;;;;11.67;70.07;98344.63;5158730;27;40673;-78
2021/10/21 18:17:07;;;;;;;0.43;0.33;;;;;;;11.65;70.45;98375.72;5177106;27;43481;-78
2021/10/21 18:19:35;;;;;;;1.60;0.30;;;;;;;11.48;70.73;98361.06;5159235;27;42604;-77
2021/10/21 18:22:04;;;;;;;1.00;0.90;;;;;;;11.55;70.08;98389.78;5196311;27;40670;-78
2021/10/21 18:24:32;;;;;;;0.20;0.20;;;;;;;11.44;71.18;98395.88;5176740;27;42881;-78
2021/10/21 18:27:00;;;;;;;0.20;0.20;;;;;;;11.38;71.35;98404.25;5159119;27;42177;-78
2021/10/21 18:29:28;;;;;;;0.20;0.20;;;;;;;11.33;71.81;98406.41;5176162;27;42172;-77
2021/10/21 18:31:57;;;;;;;0.30;0.30;;;;;;;11.28;71.20;98419.16;5159023;27;40080;-77
2021/10/21 18:34:25;;;;;;;0.53;0.53;;;;;;;11.25;71.79;98419.38;5161619;27;42104;-78
2021/10/21 18:36:53;;;;;;;1.50;0.40;;;;;;;11.12;71.30;98419.41;5180906;27;41732;-79
2021/10/21 18:39:21;;;;;;;0.37;0.37;;;;;;;11.09;72.55;98415.19;5179902;27;41568;-79
2021/10/21 18:41:49;;;;;;;0.87;0.23;;;;;;;11.05;73.83;98419.00;5178268;27;40820;-79
2021/10/21 18:44:20;;;;;;;0.40;0.40;;;;;;;10.97;73.78;98426.66;5159010;27;40593;-79
2021/10/21 18:46:48;;;;;;;0.40;0.40;;;;;;;10.82;73.53;98414.50;5176993;27;43624;-79
2021/10/21 18:49:18;;;;;;;0.30;0.30;;;;;;;10.91;74.09;98442.13;5173401;27;43272;-78
2021/10/21 18:51:47;;;;;;;0.40;0.40;;;;;;;10.86;73.87;98437.16;5155469;27;39996;-79
2021/10/21 18:54:16;;;;;;;0.40;0.40;;;;;;;10.82;73.66;98442.78;5156393;27;42033;-80
2021/10/21 18:56:45;;;;;;;0.30;0.30;;;;;;;10.80;73.24;98451.69;5155766;27;41584;-79
2021/10/21 18:59:13;;;;;;;0.20;0.20;;;;;;;10.81;72.86;98457.81;5138966;27;41214;-79
2021/10/21 19:01:41;;;;;;;0.30;0.30;;;;;;;10.77;73.15;98453.69;5154900;27;38934;-78
2021/10/21 19:04:09;;;;;;;0.40;0.40;;;;;;;10.74;73.08;98456.56;5139796;27;41658;-78
2021/10/21 19:06:39;;;;;;;0.30;0.30;;;;;;;10.72;73.08;98455.81;5159435;27;41699;-79
2021/10/21 19:09:09;;;;;;;1.63;0.30;;;;;;;10.68;72.47;98452.53;5157889;27;41319;-78
2021/10/21 19:11:38;;;;;;;0.73;0.73;;;;;;;10.58;73.02;98434.75;5157381;27;38942;-78
2021/10/21 19:14:07;;;;;;;0.30;0.30;;;;;;;10.65;73.84;98457.19;5175083;27;41581;-78
2021/10/21 19:16:35;;;;;;;0.20;0.20;;;;;;;10.30;72.80;98404.88;5175477;27;42618;-77
2021/10/21 19:19:05;;;;;;;0.30;0.30;;;;;;;10.53;72.63;98450.09;5157518;27;41991;-77
2021/10/21 19:21:33;;;;;;;0.37;0.37;;;;;;;10.57;73.29;98464.81;5174724;27;39912;-79
2021/10/21 19:24:02;;;;;;;0.40;0.40;;;;;;;10.26;73.60;98429.84;5193899;27;41788;-78
2021/10/21 19:26:30;;;;;;;0.30;0.30;;;;;;;10.51;73.97;98475.84;5176148;27;41866;-80
2021/10/21 19:28:58;;;;;;;0.50;0.30;;;;;;;10.45;74.15;98477.09;5175703;27;42166;-79
2021/10/21 19:31:26;;;;;;;0.30;0.30;;;;;;;10.39;74.70;98481.00;5173422;27;40057;-79
2021/10/21 19:33:54;;;;;;;0.20;0.20;;;;;;;10.37;74.67;98480.28;5137822;27;40819;-79
2021/10/21 19:36:21;;;;;;;0.30;0.30;;;;;;;10.33;74.42;98478.78;5137379;27;43009;-78
2021/10/21 19:38:49;;;;;;;0.40;0.40;;;;;;;10.33;74.36;98477.94;5154973;27;43342;-78
2021/10/21 19:41:22;;;;;;;0.37;0.37;;;;;;;10.32;74.89;98469.13;5150683;27;38400;-78
2021/10/21 19:43:49;;;;;;;0.30;0.30;;;;;;;10.31;75.03;98478.03;5155026;27;42239;-79
2021/10/21 19:46:17;;;;;;;0.40;0.40;;;;;;;10.20;74.84;98467.31;5154620;27;42772;-78
2021/10/21 19:48:45;;;;;;;0.43;0.43;;;;;;;10.22;75.07;98480.44;5161309;27;41318;-78
2021/10/21 19:51:13;;;;;;;0.50;0.50;;;;;;;10.23;75.01;98485.63;5157363;27;40726;-78
2021/10/21 19:53:41;;;;;;;0.50;0.50;;;;;;;10.06;75.07;98464.69;5175546;27;41833;-78